Time;durP1;ratioP1;P1;durP2;ratioP2;P2;SDS_P1;SDS_P2;PMS_P1;PMS_P2;Temp;Humidity;BMP_temperature;BMP_pressure;BME280_temperature;BME280_humidity;BME280_pressure;Samples;Min_cycle;Max_cycle;Signal;HPM_P1;HPM_P2
2022/05/21 00:00:01;;;;;;;;;;;;;;;19.96;63.53;101130.44;7410661;19;1196;-65
2022/05/21 00:02:30;;;;;;;;;;;;;;;19.95;63.26;101112.59;7407729;19;1669;-65
2022/05/21 00:04:59;;;;;;;;;;;;;;;19.96;63.56;101125.06;7409830;19;1780;-65
2022/05/21 00:07:28;;;;;;;;;;;;;;;19.95;63.23;101126.03;7409485;19;1535;-61
2022/05/21 00:10:00;;;;;;;;;;;;;;;19.99;63.41;101112.19;7409631;19;1697;-61
2022/05/21 00:12:29;;;;;;;;;;;;;;;19.96;63.27;101108.94;7409454;19;1638;-61
2022/05/21 00:14:57;;;;;;;;;;;;;;;19.95;63.09;101113.44;7409269;19;1551;-65
2022/05/21 00:17:26;;;;;;;;;;;;;;;19.93;63.43;101102.00;7408742;19;1846;-62
2022/05/21 00:19:54;;;;;;;;;;;;;;;19.95;63.25;101117.97;7409799;19;1539;-65
2022/05/21 00:22:23;;;;;;;;;;;;;;;19.93;63.35;101098.47;7411180;19;928;-61
2022/05/21 00:24:51;;;;;;;;;;;;;;;19.92;63.19;101102.16;7410576;19;1628;-60
2022/05/21 00:27:22;;;;;;;;;;;;;;;19.92;63.07;101102.16;7409249;19;1603;-61
2022/05/21 00:29:50;;;;;;;;;;;;;;;19.91;63.15;101100.44;7408939;19;1622;-65
2022/05/21 00:32:18;;;;;;;;;;;;;;;19.96;63.39;101108.94;7409604;19;1539;-65
2022/05/21 00:34:47;;;;;;;;;;;;;;;19.95;63.17;101101.88;7409468;19;1602;-65
2022/05/21 00:37:15;;;;;;;;;;;;;;;19.91;63.37;101101.28;7406972;19;1534;-65
2022/05/21 00:39:43;;;;;;;;;;;;;;;19.94;63.27;101100.19;7406153;19;1855;-61
2022/05/21 00:42:12;;;;;;;;;;;;;;;19.91;63.18;101095.91;7409019;19;1535;-61
2022/05/21 00:44:42;;;;;;;;;;;;;;;19.90;63.51;101102.28;7408853;19;1601;-61
2022/05/21 00:47:11;;;;;;;;;;;;;;;19.91;63.39;101100.44;7409041;19;1535;-65
2022/05/21 00:49:39;;;;;;;;;;;;;;;19.89;63.05;101070.19;7405456;19;1705;-65
2022/05/21 00:52:10;;;;;;;;;;;;;;;19.89;63.54;101080.94;7408845;19;1602;-65
2022/05/21 00:54:40;;;;;;;;;;;;;;;19.92;63.20;101099.47;7407153;19;1725;-65
2022/05/21 00:57:10;;;;;;;;;;;;;;;19.92;63.07;101088.72;7407319;19;1602;-61
2022/05/21 00:59:48;;;;;;;;;;;;;;;19.91;63.57;101078.97;7405738;19;1857;-65
2022/05/21 01:02:21;;;;;;;;;;;;;;;19.95;63.30;101085.75;7405324;19;1397;-60
2022/05/21 01:04:51;;;;;;;;;;;;;;;19.89;63.17;101063.00;7408495;19;1539;-64
2022/05/21 01:07:19;;;;;;;;;;;;;;;19.90;63.30;101071.91;7407734;19;1625;-61
2022/05/21 01:09:52;;;;;;;;;;;;;;;19.88;63.33;101052.41;7407833;19;1270;-64
2022/05/21 01:12:21;;;;;;;;;;;;;;;19.88;63.52;101068.50;7408208;19;1547;-64
2022/05/21 01:14:51;;;;;;;;;;;;;;;19.88;63.54;101047.03;7407975;19;1650;-61
2022/05/21 01:17:23;;;;;;;;;;;;;;;19.90;63.42;101059.34;7406982;19;1347;-65
2022/05/21 01:20:00;;;;;;;;;;;;;;;19.87;63.41;101054.22;7404690;19;1853;-60
2022/05/21 01:22:32;;;;;;;;;;;;;;;19.86;63.31;101056.06;7408258;19;1586;-66
2022/05/21 01:25:00;;;;;;;;;;;;;;;19.86;63.36;101055.22;7406126;19;1445;-61
2022/05/21 01:27:30;;;;;;;;;;;;;;;19.88;63.24;101057.78;7405750;19;1548;-65
2022/05/21 01:29:58;;;;;;;;;;;;;;;19.85;63.42;101043.63;7406600;19;1614;-60
2022/05/21 01:32:28;;;;;;;;;;;;;;;19.86;63.19;101048.00;7406642;19;1594;-61
2022/05/21 01:34:56;;;;;;;;;;;;;;;19.85;63.26;101050.81;7406936;19;1634;-65
2022/05/21 01:37:25;;;;;;;;;;;;;;;19.84;63.30;101041.94;7406870;19;1654;-61
2022/05/21 01:39:56;;;;;;;;;;;;;;;19.86;63.18;101061.44;7405966;19;1845;-63
2022/05/21 01:42:24;;;;;;;;;;;;;;;19.86;63.28;101045.31;7407106;19;1284;-61
2022/05/21 01:44:52;;;;;;;;;;;;;;;19.83;63.42;101068.91;7407356;19;1620;-65
2022/05/21 01:47:21;;;;;;;;;;;;;;;19.84;63.15;101049.97;7404208;19;1618;-61
2022/05/21 01:49:49;;;;;;;;;;;;;;;19.84;63.36;101044.63;7407008;19;1546;-61
2022/05/21 01:52:18;;;;;;;;;;;;;;;19.85;63.34;101045.47;7405786;19;1547;-65
2022/05/21 01:54:46;;;;;;;;;;;;;;;19.83;62.95;101034.84;7405261;19;1504;-65
2022/05/21 01:57:17;;;;;;;;;;;;;;;19.88;63.30;101050.56;7403872;19;1356;-60
2022/05/21 01:59:45;;;;;;;;;;;;;;;19.81;63.10;101050.22;7404073;19;1853;-65
2022/05/21 02:02:14;;;;;;;;;;;;;;;19.79;63.04;101048.69;7396305;19;1535;-60
2022/05/21 02:04:42;;;;;;;;;;;;;;;19.81;62.94;101036.81;7404300;19;1350;-65
2022/05/21 02:07:11;;;;;;;;;;;;;;;19.83;63.26;101034.84;7404494;19;1772;-66
2022/05/21 02:09:39;;;;;;;;;;;;;;;19.81;63.36;101036.81;7403199;19;1653;-65
2022/05/21 02:12:11;;;;;;;;;;;;;;;19.82;63.28;101022.44;7403816;19;1523;-60
2022/05/21 02:14:42;;;;;;;;;;;;;;;19.82;63.28;101017.06;7404201;19;1612;-60
2022/05/21 02:17:11;;;;;;;;;;;;;;;19.80;62.94;101024.41;7403553;19;1331;-60
2022/05/21 02:19:39;;;;;;;;;;;;;;;19.82;63.07;101037.69;7401651;19;1871;-61
2022/05/21 02:22:08;;;;;;;;;;;;;;;19.81;63.05;101028.75;7402372;19;1349;-61
2022/05/21 02:24:37;;;;;;;;;;;;;;;19.79;63.12;101025.38;7404765;19;1522;-61
2022/05/21 02:27:06;;;;;;;;;;;;;;;19.78;63.18;101012.94;7404171;19;1555;-65
2022/05/21 02:29:35;;;;;;;;;;;;;;;19.76;63.15;100996.13;7404246;19;1582;-65
2022/05/21 02:32:06;;;;;;;;;;;;;;;19.79;62.97;101003.06;7404174;19;1523;-65
2022/05/21 02:34:35;;;;;;;;;;;;;;;19.80;62.81;101029.75;7404593;19;1351;-65
2022/05/21 02:39:45;;;;;;;;;;;;;;;19.80;62.82;101018.19;7401749;19;1854;-65
2022/05/21 02:44:54;;;;;;;;;;;;;;;19.79;63.12;101017.31;7401526;19;1634;-66
2022/05/21 02:47:26;;;;;;;;;;;;;;;19.79;62.82;101020.00;7403868;19;1495;-65
2022/05/21 02:49:55;;;;;;;;;;;;;;;19.80;63.25;101021.72;7403815;19;1536;-61
2022/05/21 02:52:23;;;;;;;;;;;;;;;19.78;62.95;101021.00;7403179;19;1594;-60
2022/05/21 02:54:52;;;;;;;;;;;;;;;19.75;63.08;101018.56;7402505;19;1772;-61
2022/05/21 02:57:20;;;;;;;;;;;;;;;19.77;63.04;101024.66;7404005;19;1528;-61
2022/05/21 02:59:50;;;;;;;;;;;;;;;19.78;63.18;101010.28;7402640;19;1842;-60
2022/05/21 03:02:18;;;;;;;;;;;;;;;19.78;63.13;101025.53;7401974;19;1402;-61
2022/05/21 03:04:50;;;;;;;;;;;;;;;19.76;63.14;101032.88;7402075;19;1215;-60
2022/05/21 03:07:18;;;;;;;;;;;;;;;19.78;63.12;101031.75;7402979;19;1533;-61
2022/05/21 03:12:37;;;;;;;;;;;;;;;19.80;63.32;101043.19;7399779;19;1500;-61
2022/05/21 03:15:05;;;;;;;;;;;;;;;19.75;62.91;101020.41;7403344;19;1528;-60
2022/05/21 03:17:34;;;;;;;;;;;;;;;19.77;63.20;101030.03;7404103;19;1343;-65
2022/05/21 03:20:06;;;;;;;;;;;;;;;19.77;63.09;101040.75;7402261;19;1908;-65
2022/05/21 03:22:35;;;;;;;;;;;;;;;19.75;63.33;101021.25;7404085;19;1621;-65
2022/05/21 03:25:04;;;;;;;;;;;;;;;19.74;63.08;101029.47;7403494;19;1338;-65
2022/05/21 03:27:32;;;;;;;;;;;;;;;19.75;63.36;101023.09;7402463;19;1343;-65
2022/05/21 03:30:01;;;;;;;;;;;;;;;19.78;62.89;101033.59;7404595;19;1511;-65
2022/05/21 03:32:29;;;;;;;;;;;;;;;19.78;62.97;101029.06;7402339;19;1637;-61
2022/05/21 03:34:58;;;;;;;;;;;;;;;19.77;63.13;101029.19;7401998;19;1488;-60
2022/05/21 03:37:29;;;;;;;;;;;;;;;19.79;62.96;101033.41;7401285;19;1441;-61
2022/05/21 03:39:58;;;;;;;;;;;;;;;19.81;63.07;101030.59;7401003;19;1849;-61
2022/05/21 03:42:26;;;;;;;;;;;;;;;19.84;63.02;101033.03;7402894;19;1528;-60
2022/05/21 03:44:55;;;;;;;;;;;;;;;19.88;63.03;101025.56;7402447;19;1396;-60
2022/05/21 03:47:23;;;;;;;;;;;;;;;19.91;63.09;101022.59;7400834;19;1231;-61
2022/05/21 03:49:51;;;;;;;;;;;;;;;19.88;62.94;101030.94;7405159;19;1375;-65
2022/05/21 03:52:20;;;;;;;;;;;;;;;19.85;63.24;101022.16;7409208;19;1455;-61
2022/05/21 03:54:55;;;;;;;;;;;;;;;19.91;63.01;101020.75;7409627;19;1375;-65
2022/05/21 03:57:23;;;;;;;;;;;;;;;19.95;63.02;101032.91;7410431;19;1319;-65
2022/05/21 03:59:51;;;;;;;;;;;;;;;19.97;62.82;101028.25;7409182;19;1842;-61
2022/05/21 04:02:20;;;;;;;;;;;;;;;19.95;61.99;101019.50;7406876;19;1507;-61
2022/05/21 04:04:48;;;;;;;;;;;;;;;19.97;61.97;101019.38;7409237;19;1554;-61
2022/05/21 04:07:17;;;;;;;;;;;;;;;19.97;62.00;101019.38;7409815;19;1546;-61
2022/05/21 04:09:45;;;;;;;;;;;;;;;19.99;62.66;101017.41;7409914;19;1446;-65
2022/05/21 04:12:17;;;;;;;;;;;;;;;20.05;62.67;101027.59;7409280;19;1491;-65
2022/05/21 04:14:45;;;;;;;;;;;;;;;20.04;62.35;101026.75;7408783;19;1706;-61
2022/05/21 04:17:15;;;;;;;;;;;;;;;20.08;62.46;101031.88;7409570;19;1519;-65
2022/05/21 04:19:43;;;;;;;;;;;;;;;20.11;62.67;101043.16;7408101;19;1848;-65
2022/05/21 04:22:12;;;;;;;;;;;;;;;20.08;62.54;101037.22;7410500;19;1539;-65
2022/05/21 04:24:41;;;;;;;;;;;;;;;20.10;62.60;101049.53;7409227;19;1602;-65
2022/05/21 04:27:10;;;;;;;;;;;;;;;20.12;62.54;101034.13;7408202;19;1750;-61
2022/05/21 04:29:41;;;;;;;;;;;;;;;20.18;62.18;101044.31;7407930;19;1625;-60
2022/05/21 04:32:10;;;;;;;;;;;;;;;20.20;62.13;101047.72;7408304;19;1529;-61
2022/05/21 04:34:38;;;;;;;;;;;;;;;20.19;62.29;101045.16;7407989;19;1398;-65
2022/05/21 04:37:07;;;;;;;;;;;;;;;20.20;61.99;101036.97;7409843;19;1539;-61
2022/05/21 04:39:35;;;;;;;;;;;;;;;20.23;62.33;101039.41;7408137;19;1846;-60
2022/05/21 04:42:04;;;;;;;;;;;;;;;20.31;62.18;101043.22;7407802;19;1657;-60
2022/05/21 04:44:35;;;;;;;;;;;;;;;20.34;62.08;101043.81;7407771;19;1601;-65
2022/05/21 04:47:07;;;;;;;;;;;;;;;20.30;61.98;101041.53;7406669;19;1625;-61
2022/05/21 04:49:36;;;;;;;;;;;;;;;20.33;62.32;101042.09;7409146;19;1204;-65
2022/05/21 04:52:05;;;;;;;;;;;;;;;20.29;62.31;101037.97;7407329;19;1531;-65
2022/05/21 04:54:33;;;;;;;;;;;;;;;20.31;62.09;101048.59;7408114;19;1378;-65
2022/05/21 04:57:02;;;;;;;;;;;;;;;20.34;62.00;101037.59;7408009;19;1607;-66
2022/05/21 04:59:30;;;;;;;;;;;;;;;20.33;62.16;101027.81;7408081;19;1846;-65
2022/05/21 05:02:00;;;;;;;;;;;;;;;20.35;62.13;101040.16;7404567;19;1579;-65
2022/05/21 05:04:31;;;;;;;;;;;;;;;20.38;62.05;101033.63;7408293;19;1641;-61
2022/05/21 05:06:59;;;;;;;;;;;;;;;20.41;62.16;101036.91;7408716;19;1730;-61
2022/05/21 05:09:28;;;;;;;;;;;;;;;20.43;62.02;101050.16;7406659;19;1563;-61
2022/05/21 05:11:56;;;;;;;;;;;;;;;20.42;62.29;101048.50;7408053;19;1622;-60
2022/05/21 05:14:25;;;;;;;;;;;;;;;20.42;62.23;101030.53;7407433;19;1433;-60
2022/05/21 05:16:53;;;;;;;;;;;;;;;20.47;62.20;101043.53;7408287;19;1575;-60
2022/05/21 05:19:22;;;;;;;;;;;;;;;20.50;61.76;101029.00;7406837;19;1859;-60
2022/05/21 05:21:53;;;;;;;;;;;;;;;20.49;62.09;101028.13;7407933;19;1613;-61
2022/05/21 05:24:21;;;;;;;;;;;;;;;20.47;61.96;101030.09;7406917;19;1567;-65
2022/05/21 05:26:49;;;;;;;;;;;;;;;20.46;61.72;101020.34;7407258;19;1539;-65
2022/05/21 05:29:18;;;;;;;;;;;;;;;20.45;62.04;101029.38;7403729;19;1565;-61
2022/05/21 05:31:46;;;;;;;;;;;;;;;20.46;62.13;101025.72;7405858;19;1602;-61
2022/05/21 05:34:15;;;;;;;;;;;;;;;20.45;62.00;101024.03;7407607;19;1610;-61
2022/05/21 05:36:44;;;;;;;;;;;;;;;20.42;62.20;101013.56;7407478;19;1772;-61
2022/05/21 05:39:16;;;;;;;;;;;;;;;20.46;62.20;101025.72;7403779;19;1844;-61
2022/05/21 05:41:44;;;;;;;;;;;;;;;20.46;61.78;101023.03;7405810;19;1681;-61
2022/05/21 05:44:12;;;;;;;;;;;;;;;20.49;62.01;101017.38;7406708;19;1528;-65
2022/05/21 05:46:41;;;;;;;;;;;;;;;20.45;61.85;101002.53;7406732;19;1429;-66
2022/05/21 05:49:09;;;;;;;;;;;;;;;20.47;62.02;101011.28;7406777;19;1625;-61
2022/05/21 05:51:38;;;;;;;;;;;;;;;20.49;61.80;101006.63;7406230;19;1621;-61
2022/05/21 05:54:07;;;;;;;;;;;;;;;20.46;61.81;101001.56;7405117;19;1894;-61
2022/05/21 05:56:38;;;;;;;;;;;;;;;20.46;62.00;101007.78;7405678;19;1334;-61
2022/05/21 06:01:47;;;;;;;;;;;;;;;20.50;61.82;101011.03;7402331;19;1418;-61
2022/05/21 06:04:16;;;;;;;;;;;;;;;20.55;61.43;101014.16;7402289;19;1271;-65
2022/05/21 06:06:44;;;;;;;;;;;;;;;20.52;61.79;101006.38;7401965;19;1593;-61
2022/05/21 06:09:13;;;;;;;;;;;;;;;20.53;61.46;101009.91;7404700;19;1504;-61
2022/05/21 06:11:44;;;;;;;;;;;;;;;20.53;61.75;100999.16;7406622;19;1519;-66
2022/05/21 06:14:12;;;;;;;;;;;;;;;20.52;61.62;100998.31;7406492;19;1617;-65
2022/05/21 06:16:41;;;;;;;;;;;;;;;20.53;61.63;100994.66;7405872;19;1491;-65
2022/05/21 06:19:09;;;;;;;;;;;;;;;20.54;61.92;100985.59;7405752;19;1519;-61
2022/05/21 06:21:38;;;;;;;;;;;;;;;20.51;61.80;100975.09;7404004;19;1834;-60
2022/05/21 06:24:06;;;;;;;;;;;;;;;20.52;61.63;100984.88;7405803;19;1602;-65
2022/05/21 06:26:35;;;;;;;;;;;;;;;20.53;61.84;100973.16;7405569;19;1518;-65
2022/05/21 06:29:06;;;;;;;;;;;;;;;20.53;61.62;100966.91;7405684;19;1542;-61
2022/05/21 06:31:35;;;;;;;;;;;;;;;20.50;61.73;100984.16;7405771;19;1622;-65
2022/05/21 06:34:04;;;;;;;;;;;;;;;20.53;61.93;100966.91;7405511;19;1854;-61
2022/05/21 06:36:32;;;;;;;;;;;;;;;20.53;61.85;100972.28;7406380;19;1774;-65
2022/05/21 06:39:01;;;;;;;;;;;;;;;20.53;61.82;100981.22;7406077;19;1570;-61
2022/05/21 06:41:31;;;;;;;;;;;;;;;20.55;61.75;100986.44;7402560;19;1855;-65
2022/05/21 06:43:59;;;;;;;;;;;;;;;20.56;61.47;100978.22;7405516;19;1625;-65
2022/05/21 06:46:30;;;;;;;;;;;;;;;20.55;61.50;100970.31;7405552;19;1617;-60
2022/05/21 06:48:59;;;;;;;;;;;;;;;20.54;61.42;100969.47;7405133;19;1741;-66
2022/05/21 06:51:27;;;;;;;;;;;;;;;20.57;61.39;100963.81;7406046;19;1542;-66
2022/05/21 06:53:56;;;;;;;;;;;;;;;20.53;61.70;100962.41;7404514;19;1622;-61
2022/05/21 06:56:24;;;;;;;;;;;;;;;20.59;61.62;100955.63;7405343;19;1264;-61
2022/05/21 06:58:53;;;;;;;;;;;;;;;20.59;61.66;100961.00;7405559;19;1539;-65
2022/05/21 07:01:21;;;;;;;;;;;;;;;20.56;61.82;100966.63;7402857;19;1842;-65
2022/05/21 07:03:52;;;;;;;;;;;;;;;20.56;61.67;100948.69;7405376;19;1519;-64
2022/05/21 07:09:01;;;;;;;;;;;;;;;20.57;61.66;100950.38;7406277;19;1400;-65
2022/05/21 07:11:30;;;;;;;;;;;;;;;20.59;61.87;100961.00;7405069;19;1590;-65
2022/05/21 07:13:58;;;;;;;;;;;;;;;20.58;61.94;100964.66;7404862;19;1567;-65
2022/05/21 07:16:27;;;;;;;;;;;;;;;20.57;61.72;100947.69;7405092;19;1350;-65
2022/05/21 07:18:58;;;;;;;;;;;;;;;20.52;61.87;100919.56;7404104;19;1756;-65
2022/05/21 07:21:26;;;;;;;;;;;;;;;20.55;61.56;100936.25;7402582;19;1874;-66
2022/05/21 07:23:55;;;;;;;;;;;;;;;20.58;61.86;100927.88;7403924;19;1535;-60
2022/05/21 07:26:23;;;;;;;;;;;;;;;20.58;61.51;100921.66;7411478;19;1534;-61
2022/05/21 07:28:52;;;;;;;;;;;;;;;20.56;61.60;100918.28;7410621;19;1500;-60
2022/05/21 07:31:20;;;;;;;;;;;;;;;20.55;61.88;100922.81;7411894;19;1620;-65
2022/05/21 07:33:49;;;;;;;;;;;;;;;20.56;61.79;100926.34;7411265;19;1574;-61
2022/05/21 07:36:21;;;;;;;;;;;;;;;20.56;61.53;100919.13;7411133;19;1618;-61
2022/05/21 07:38:49;;;;;;;;;;;;;;;20.58;61.83;100921.66;7410726;19;1622;-61
2022/05/21 07:41:17;;;;;;;;;;;;;;;20.55;61.63;100906.69;7408402;19;1864;-65
2022/05/21 07:43:46;;;;;;;;;;;;;;;20.58;61.71;100917.13;7410807;19;1449;-66
2022/05/21 07:46:14;;;;;;;;;;;;;;;20.57;61.69;100910.09;7412273;19;1645;-65
2022/05/21 07:48:43;;;;;;;;;;;;;;;20.57;61.41;100910.09;7411005;19;1634;-66
2022/05/21 07:51:12;;;;;;;;;;;;;;;20.58;61.67;100909.06;7411302;19;1621;-60
2022/05/21 07:53:43;;;;;;;;;;;;;;;20.60;61.91;100907.13;7410884;19;1551;-61
2022/05/21 07:56:13;;;;;;;;;;;;;;;20.56;61.93;100897.63;7410928;19;1342;-61
2022/05/21 07:58:43;;;;;;;;;;;;;;;20.60;61.63;100925.94;7407112;19;1716;-61
2022/05/21 08:01:12;;;;;;;;;;;;;;;20.58;61.72;100884.91;7408274;19;1842;-61
2022/05/21 08:03:40;;;;;;;;;;;;;;;20.60;61.93;100912.50;7410062;19;1624;-66
2022/05/21 08:06:09;;;;;;;;;;;;;;;20.56;61.68;100900.31;7411335;19;1083;-65
2022/05/21 08:08:37;;;;;;;;;;;;;;;20.54;61.99;100888.03;7410526;19;1792;-65
2022/05/21 08:11:08;;;;;;;;;;;;;;;20.57;61.69;100899.34;7409512;19;1538;-65
2022/05/21 08:13:37;;;;;;;;;;;;;;;20.59;62.00;100901.88;7410670;19;1652;-66
2022/05/21 08:16:06;;;;;;;;;;;;;;;20.56;61.79;100894.94;7409859;19;1629;-60
2022/05/21 08:18:34;;;;;;;;;;;;;;;20.57;61.83;100895.78;7409923;19;1567;-60
2022/05/21 08:21:03;;;;;;;;;;;;;;;20.53;61.97;100871.06;7408656;19;1834;-61
2022/05/21 08:28:55;;;;;;;;;;;;;;;20.53;61.71;100887.19;7409283;19;1547;-61
2022/05/21 08:31:23;;;;;;;;;;;;;;;20.56;62.02;100886.88;7409245;19;1534;-61
2022/05/21 08:33:52;;;;;;;;;;;;;;;20.56;61.94;100875.28;7408948;19;1638;-61
2022/05/21 08:36:20;;;;;;;;;;;;;;;20.54;62.04;100869.22;7409202;19;1609;-61
2022/05/21 08:38:49;;;;;;;;;;;;;;;20.58;62.03;100887.59;7408658;19;1535;-61
2022/05/21 08:41:25;;;;;;;;;;;;;;;20.55;62.12;100882.50;7406890;19;1855;-61
2022/05/21 08:43:58;;;;;;;;;;;;;;;20.58;61.85;100889.44;7408927;19;1566;-60
2022/05/21 08:46:37;;;;;;;;;;;;;;;20.57;61.96;100885.91;7409670;19;1613;-61
2022/05/21 08:49:07;;;;;;;;;;;;;;;20.55;61.90;100887.03;7408708;19;1646;-61
2022/05/21 08:51:38;;;;;;;;;;;;;;;20.55;62.20;100869.09;7408493;19;1614;-65
2022/05/21 08:54:07;;;;;;;;;;;;;;;20.55;62.11;100878.97;7407925;19;1534;-65
2022/05/21 08:56:39;;;;;;;;;;;;;;;20.56;61.88;100878.81;7408607;19;1354;-65
2022/05/21 08:59:09;;;;;;;;;;;;;;;20.56;61.80;100892.25;7408648;19;1602;-66
2022/05/21 09:01:40;;;;;;;;;;;;;;;20.55;61.91;100874.47;7407437;19;1847;-65
2022/05/21 09:04:10;;;;;;;;;;;;;;;20.58;62.23;100879.53;7408833;19;1673;-66
2022/05/21 09:06:43;;;;;;;;;;;;;;;20.53;62.17;100870.19;7406549;19;1566;-62
2022/05/21 09:09:17;;;;;;;;;;;;;;;20.54;62.07;100872.75;7408168;19;1629;-61
2022/05/21 09:11:50;;;;;;;;;;;;;;;20.54;62.09;100867.38;7407573;19;1636;-62
2022/05/21 09:14:25;;;;;;;;;;;;;;;20.56;62.11;100870.75;7407877;19;1347;-61
2022/05/21 09:16:56;;;;;;;;;;;;;;;20.52;61.97;100874.72;7408100;19;1499;-61
2022/05/21 09:19:25;;;;;;;;;;;;;;;20.57;62.10;100880.53;7407506;19;1621;-65
2022/05/21 09:21:58;;;;;;;;;;;;;;;20.53;62.18;100880.94;7406974;19;1849;-61
2022/05/21 09:24:37;;;;;;;;;;;;;;;20.56;62.25;100886.88;7405833;19;1764;-62
2022/05/21 09:27:22;;;;;;;;;;;;;;;20.51;62.03;100872.19;7406243;19;1495;-61
2022/05/21 09:29:53;;;;;;;;;;;;;;;20.53;62.00;100886.31;7406948;19;1625;-61
2022/05/21 09:32:23;;;;;;;;;;;;;;;20.53;62.08;100871.06;7404339;19;1652;-61
2022/05/21 09:35:09;;;;;;;;;;;;;;;20.52;62.20;100871.19;7408320;19;1437;-65
2022/05/21 09:37:38;;;;;;;;;;;;;;;20.51;62.41;100867.66;7407314;19;1534;-65
2022/05/21 09:40:23;;;;;;;;;;;;;;;20.50;62.00;100857.91;7407158;19;1630;-65
2022/05/21 09:45:37;;;;;;;;;;;;;;;20.50;62.02;100839.09;7405479;19;1681;-65
2022/05/21 09:48:19;;;;;;;;;;;;;;;20.47;62.02;100860.88;7405668;19;1760;-66
2022/05/21 09:50:49;;;;;;;;;;;;;;;20.50;62.36;100852.53;7407234;19;1488;-66
2022/05/21 09:53:28;;;;;;;;;;;;;;;20.49;62.45;100820.44;7406752;19;1630;-66
2022/05/21 09:56:04;;;;;;;;;;;;;;;20.49;62.16;100833.88;7406335;19;1755;-61
2022/05/21 09:58:37;;;;;;;;;;;;;;;20.51;62.51;100838.09;7405921;19;1539;-61
2022/05/21 10:01:07;;;;;;;;;;;;;;;20.49;62.25;100826.66;7405167;19;1861;-61
2022/05/21 10:03:45;;;;;;;;;;;;;;;20.51;62.00;100838.09;7406624;19;1538;-61
2022/05/21 10:06:25;;;;;;;;;;;;;;;20.51;62.22;100818.44;7407138;19;969;-61
2022/05/21 10:11:40;;;;;;;;;;;;;;;20.48;62.44;100806.16;7406872;19;1414;-61
2022/05/21 10:14:14;;;;;;;;;;;;;;;20.47;62.54;100807.13;7405784;19;1678;-61
2022/05/21 10:16:46;;;;;;;;;;;;;;;20.49;62.25;100809.69;7406330;19;1633;-61
2022/05/21 10:19:18;;;;;;;;;;;;;;;20.51;62.34;100816.59;7405838;19;1731;-66
2022/05/21 10:21:55;;;;;;;;;;;;;;;20.51;62.30;100821.13;7404969;19;1857;-66
2022/05/21 10:24:27;;;;;;;;;;;;;;;20.48;62.16;100813.38;7405293;19;1669;-62
2022/05/21 10:27:10;;;;;;;;;;;;;;;20.52;62.02;100807.56;7405729;19;1547;-61
2022/05/21 10:29:57;;;;;;;;;;;;;;;20.47;62.23;100799.06;7404672;19;1658;-61
2022/05/21 10:32:33;;;;;;;;;;;;;;;20.48;62.47;100798.09;7404678;19;1277;-61
2022/05/21 10:35:09;;;;;;;;;;;;;;;20.46;62.51;100790.19;7404800;19;1347;-61
2022/05/21 10:37:44;;;;;;;;;;;;;;;20.45;62.41;100769.69;7405211;19;1520;-61
2022/05/21 10:40:29;;;;;;;;;;;;;;;20.46;62.59;100779.44;7403351;19;1660;-61
2022/05/21 10:43:15;;;;;;;;;;;;;;;20.48;62.30;100773.94;7403350;19;1903;-66
2022/05/21 10:45:48;;;;;;;;;;;;;;;20.47;62.48;100766.84;7405783;19;1633;-66
2022/05/21 10:48:26;;;;;;;;;;;;;;;20.52;62.08;100769.13;7405212;19;1347;-66
2022/05/21 10:50:58;;;;;;;;;;;;;;;20.50;62.24;100769.25;7403625;19;1638;-61
2022/05/21 10:53:38;;;;;;;;;;;;;;;20.48;62.68;100765.88;7404513;19;1833;-61
2022/05/21 10:56:11;;;;;;;;;;;;;;;20.49;62.22;100758.66;7405028;19;1752;-66
2022/05/21 10:58:49;;;;;;;;;;;;;;;20.49;62.37;100762.19;7404342;19;1756;-66
2022/05/21 11:01:23;;;;;;;;;;;;;;;20.48;62.24;100749.75;7410858;19;1869;-66
2022/05/21 11:04:01;;;;;;;;;;;;;;;20.48;62.33;100732.78;7413102;19;1523;-65
2022/05/21 11:06:39;;;;;;;;;;;;;;;20.48;62.54;100733.63;7413841;19;1539;-65
2022/05/21 11:09:14;;;;;;;;;;;;;;;20.50;62.27;100728.13;7412038;19;1291;-66
2022/05/21 11:11:50;;;;;;;;;;;;;;;20.49;62.25;100729.09;7413328;19;1605;-65
2022/05/21 11:14:21;;;;;;;;;;;;;;;20.48;61.93;100727.41;7412558;19;1463;-66
2022/05/21 11:16:55;;;;;;;;;;;;;;;20.49;62.33;100716.50;7412489;19;1487;-66
2022/05/21 11:19:26;;;;;;;;;;;;;;;20.48;62.53;100706.78;7411481;19;1533;-66
2022/05/21 11:21:59;;;;;;;;;;;;;;;20.48;62.61;100696.03;7410505;19;1841;-61
2022/05/21 11:24:34;;;;;;;;;;;;;;;20.51;62.55;100706.47;7411202;19;1764;-61
2022/05/21 11:27:04;;;;;;;;;;;;;;;20.48;62.33;100698.72;7410477;19;1534;-61
2022/05/21 11:29:38;;;;;;;;;;;;;;;20.47;62.33;100686.25;7410960;19;1574;-66
2022/05/21 11:37:35;;;;;;;;;;;;;;;20.48;62.09;100671.00;7411136;19;1644;-61
2022/05/21 11:40:04;;;;;;;;;;;;;;;20.46;62.24;100660.41;7410641;19;1563;-61
2022/05/21 11:42:35;;;;;;;;;;;;;;;20.49;62.19;100670.00;7409879;19;1853;-61
2022/05/21 11:45:19;;;;;;;;;;;;;;;20.49;61.88;100654.72;7410723;19;1320;-66
2022/05/21 11:47:58;;;;;;;;;;;;;;;20.52;62.14;100661.66;7410217;19;1567;-61
2022/05/21 11:50:31;;;;;;;;;;;;;;;20.49;62.25;100659.25;7410871;19;1523;-61
2022/05/21 11:53:05;;;;;;;;;;;;;;;20.52;62.34;100657.13;7410271;19;1538;-60
2022/05/21 11:55:54;;;;;;;;;;;;;;;20.51;62.14;100652.72;7411210;19;1555;-60
2022/05/21 11:58:26;;;;;;;;;;;;;;;20.49;62.22;100652.03;7409458;19;1538;-61
2022/05/21 12:00:55;;;;;;;;;;;;;;;20.50;62.14;100656.44;7410361;19;1523;-62
2022/05/21 12:03:26;;;;;;;;;;;;;;;20.51;62.28;100660.78;7408356;19;1849;-61
2022/05/21 12:06:19;;;;;;;;;;;;;;;20.50;62.49;100656.44;7410240;19;1576;-61
2022/05/21 12:08:49;;;;;;;;;;;;;;;20.50;62.13;100650.22;7410000;19;1665;-61
2022/05/21 12:11:34;;;;;;;;;;;;;;;20.50;62.42;100650.22;7408950;19;1543;-65
2022/05/21 12:14:06;;;;;;;;;;;;;;;20.54;62.05;100652.44;7409615;19;1587;-61
2022/05/21 12:16:52;;;;;;;;;;;;;;;20.52;62.21;100638.31;7410482;19;1634;-61
2022/05/21 12:19:35;;;;;;;;;;;;;;;20.51;62.00;100635.78;7409746;19;1429;-60
2022/05/21 12:22:06;;;;;;;;;;;;;;;20.53;62.01;100640.03;7409296;19;1838;-66
2022/05/21 12:24:36;;;;;;;;;;;;;;;20.49;61.84;100627.88;7408981;19;1756;-66
2022/05/21 12:27:05;;;;;;;;;;;;;;;20.52;62.20;100649.06;7406225;19;1214;-66
2022/05/21 12:29:34;;;;;;;;;;;;;;;20.50;61.96;100628.72;7408671;19;1530;-66
2022/05/21 12:32:03;;;;;;;;;;;;;;;20.55;62.29;100638.03;7408267;19;1551;-61
2022/05/21 12:34:49;;;;;;;;;;;;;;;20.53;62.08;100629.28;7409436;19;1554;-66
2022/05/21 12:37:23;;;;;;;;;;;;;;;20.55;61.90;100634.50;7408802;19;1492;-66
2022/05/21 12:40:01;;;;;;;;;;;;;;;20.51;62.16;100619.66;7409981;19;1200;-66
2022/05/21 12:42:33;;;;;;;;;;;;;;;20.54;61.95;100625.59;7407991;19;1842;-66
2022/05/21 12:45:02;;;;;;;;;;;;;;;20.50;62.07;100610.75;7408734;19;1637;-65
2022/05/21 12:47:32;;;;;;;;;;;;;;;20.54;61.91;100603.25;7409164;19;1204;-66
2022/05/21 12:50:03;;;;;;;;;;;;;;;20.54;62.28;100614.84;7409005;19;1629;-66
2022/05/21 12:52:37;;;;;;;;;;;;;;;20.54;62.17;100609.47;7409950;19;1624;-65
2022/05/21 12:55:30;;;;;;;;;;;;;;;20.54;61.93;100604.09;7407820;19;1742;-61
2022/05/21 12:58:00;;;;;;;;;;;;;;;20.53;62.25;100586.31;7406900;19;1681;-66
2022/05/21 13:00:31;;;;;;;;;;;;;;;20.52;62.08;100589.97;7408748;19;1763;-66
2022/05/21 13:03:01;;;;;;;;;;;;;;;20.55;62.15;100594.19;7404903;19;1850;-66
2022/05/21 13:05:32;;;;;;;;;;;;;;;20.53;62.23;100590.81;7409029;19;1546;-61
2022/05/21 13:08:06;;;;;;;;;;;;;;;20.54;62.06;100585.28;7408312;19;1594;-66
2022/05/21 13:10:36;;;;;;;;;;;;;;;20.52;61.97;100576.53;7408321;19;1511;-61
2022/05/21 13:13:07;;;;;;;;;;;;;;;20.53;62.15;100572.88;7408706;19;1590;-61
2022/05/21 13:15:37;;;;;;;;;;;;;;;20.53;62.43;100575.56;7407321;19;1555;-61
2022/05/21 13:18:09;;;;;;;;;;;;;;;20.54;62.21;100573.72;7407518;19;1693;-61
2022/05/21 13:20:41;;;;;;;;;;;;;;;20.51;62.27;100572.16;7407418;19;1673;-61
2022/05/21 13:23:19;;;;;;;;;;;;;;;20.53;62.12;100567.50;7404423;19;1849;-65
2022/05/21 13:25:52;;;;;;;;;;;;;;;20.54;62.02;100571.03;7407613;19;1622;-66
2022/05/21 13:28:21;;;;;;;;;;;;;;;20.55;62.21;100562.81;7407849;19;1542;-65
2022/05/21 13:30:51;;;;;;;;;;;;;;;20.54;62.18;100561.13;7408650;19;945;-65
2022/05/21 13:33:30;;;;;;;;;;;;;;;20.55;62.18;100559.25;7407905;19;1669;-65
2022/05/21 13:36:00;;;;;;;;;;;;;;;20.51;62.17;100552.50;7408371;19;1670;-66